createdAt,value
2022-09-26T00:00:34.936Z,5.69
2022-09-26T00:05:36.983Z,5.62
2022-09-26T00:10:38.274Z,5.65
2022-09-26T00:15:39.582Z,5.58
2022-09-26T00:20:40.887Z,5.56
2022-09-26T00:25:48.984Z,5.75
2022-09-26T00:30:50.441Z,5.94
2022-09-26T00:35:52.434Z,6.02
2022-09-26T00:40:53.983Z,6.05
2022-09-26T00:46:01.685Z,6.21
2022-09-26T00:51:03.302Z,6.24
2022-09-26T00:56:07.398Z,6.32
2022-09-26T01:01:09.299Z,6.39
2022-09-26T01:06:11.316Z,6.44
2022-09-26T01:11:17.239Z,6.48
2022-09-26T01:16:18.829Z,6.62
2022-09-26T01:21:37.461Z,6.69
2022-09-26T01:27:01.355Z,6.75
2022-09-26T01:32:27.546Z,6.75
2022-09-26T01:37:44.632Z,6.83
2022-09-26T01:42:45.904Z,6.87
2022-09-26T01:47:52.276Z,7.10
2022-09-26T01:52:58.994Z,7.15
2022-09-26T01:58:12.989Z,7.23
2022-09-26T02:03:17.118Z,7.30
2022-09-26T02:08:24.355Z,7.43
2022-09-26T02:13:30.064Z,7.39
2022-09-26T02:18:34.941Z,7.39
2022-09-26T02:23:36.256Z,7.38
2022-09-26T02:28:37.624Z,7.40
2022-09-26T02:33:39.125Z,7.44
2022-09-26T02:38:40.433Z,7.42
2022-09-26T02:43:47.706Z,7.44
2022-09-26T02:49:04.301Z,7.50
2022-09-26T02:54:12.108Z,7.42
2022-09-26T02:59:21.444Z,7.44
2022-09-26T03:04:38.136Z,7.46
2022-09-26T03:09:41.569Z,7.48
2022-09-26T03:14:44.377Z,7.64
2022-09-26T03:19:52.576Z,7.55
2022-09-26T03:24:54.056Z,7.49
2022-09-26T03:29:55.362Z,7.44
2022-09-26T03:34:56.741Z,7.48
2022-09-26T03:39:58.042Z,7.28
2022-09-26T03:44:59.827Z,7.42
2022-09-26T03:50:01.365Z,7.27
2022-09-26T03:55:02.736Z,7.26
2022-09-26T04:00:04.283Z,7.15
2022-09-26T04:05:05.971Z,7.32
2022-09-26T04:10:07.535Z,7.59
2022-09-26T04:15:09.071Z,7.27
2022-09-26T04:20:10.378Z,6.97
2022-09-26T04:25:11.726Z,6.83
2022-09-26T04:30:13.563Z,6.93
2022-09-26T04:35:14.859Z,6.80
2022-09-26T04:40:16.217Z,6.81
2022-09-26T04:45:18.371Z,6.74
2022-09-26T04:50:19.713Z,6.56
2022-09-26T04:55:21.009Z,6.56
2022-09-26T05:00:23.479Z,6.46
2022-09-26T05:05:24.839Z,6.44
2022-09-26T05:10:26.153Z,6.36
2022-09-26T05:15:27.821Z,6.34
2022-09-26T05:20:31.352Z,6.50
2022-09-26T05:25:56.585Z,7.06
2022-09-26T05:30:57.881Z,7.34
2022-09-26T05:35:59.170Z,7.50
2022-09-26T05:41:00.733Z,7.52
2022-09-26T05:46:06.221Z,7.64
2022-09-26T05:51:10.917Z,7.71
2022-09-26T05:56:18.270Z,7.82
2022-09-26T06:01:20.319Z,8.01
2022-09-26T06:06:21.718Z,8.76
2022-09-26T06:11:24.929Z,9.27
2022-09-26T06:16:26.792Z,8.85
2022-09-26T06:21:28.207Z,8.58
2022-09-26T06:26:29.502Z,8.47
2022-09-26T06:31:30.996Z,8.51
2022-09-26T06:36:33.649Z,8.57
2022-09-26T06:41:35.230Z,8.84
2022-09-26T06:46:36.610Z,8.96
2022-09-26T06:51:38.254Z,9.23
2022-09-26T06:56:39.569Z,9.21
2022-09-26T07:01:41.455Z,9.37
2022-09-26T07:06:42.896Z,9.54
2022-09-26T07:12:12.761Z,9.81
2022-09-26T07:17:08.378Z,10.12
2022-09-26T07:22:09.897Z,10.28
2022-09-26T07:27:11.319Z,10.58
2022-09-26T07:32:13.170Z,11.21
2022-09-26T07:37:15.052Z,12.17
2022-09-26T07:42:17.280Z,11.10
2022-09-26T07:47:37.172Z,11.18
2022-09-26T07:52:39.918Z,11.85
2022-09-26T07:57:41.221Z,12.05
2022-09-26T08:02:45.253Z,12.01
2022-09-26T08:07:47.964Z,11.69
2022-09-26T08:12:49.714Z,12.00
2022-09-26T08:17:51.924Z,11.97
2022-09-26T08:22:56.313Z,12.58
2022-09-26T08:27:59.411Z,13.01
2022-09-26T08:33:02.049Z,14.23
2022-09-26T08:38:03.754Z,14.59
2022-09-26T08:43:18.297Z,14.11
2022-09-26T08:48:27.488Z,13.64
2022-09-26T08:53:35.200Z,13.66
2022-09-26T08:58:42.966Z,13.45
2022-09-26T09:03:52.993Z,13.06
2022-09-26T09:08:56.285Z,12.63
2022-09-26T09:14:00.363Z,12.28
2022-09-26T09:19:04.762Z,12.20
2022-09-26T09:24:24.975Z,12.31
2022-09-26T09:29:37.917Z,12.16
2022-09-26T09:34:41.332Z,11.96
2022-09-26T09:39:44.643Z,12.03
2022-09-26T09:44:53.765Z,12.10
2022-09-26T09:49:55.589Z,11.95
2022-09-26T09:55:10.616Z,11.90
2022-09-26T10:00:16.624Z,11.87
2022-09-26T10:05:36.636Z,12.00
2022-09-26T10:10:40.731Z,11.85
2022-09-26T10:15:44.724Z,11.86
2022-09-26T10:20:53.355Z,11.80
2022-09-26T10:26:00.053Z,11.95
2022-09-26T10:31:07.659Z,11.89
2022-09-26T10:36:28.028Z,11.92
2022-09-26T10:41:29.368Z,11.99
2022-09-26T10:46:30.941Z,11.95
2022-09-26T10:51:32.303Z,12.00
2022-09-26T10:56:37.035Z,12.22
2022-09-26T11:01:44.320Z,12.39
2022-09-26T11:06:45.675Z,12.58
2022-09-26T11:11:50.593Z,12.55
2022-09-26T11:16:53.866Z,12.53
2022-09-26T11:22:08.645Z,12.53
2022-09-26T11:27:31.585Z,12.56
2022-09-26T11:32:40.780Z,12.81
2022-09-26T11:38:06.860Z,12.81
2022-09-26T11:43:20.131Z,12.92
2022-09-26T11:48:27.456Z,12.91
2022-09-26T11:53:39.883Z,13.02
2022-09-26T11:58:41.168Z,13.17
2022-09-26T12:04:01.450Z,13.19
2022-09-26T12:09:07.489Z,13.31
2022-09-26T12:14:09.299Z,13.14
2022-09-26T12:19:16.549Z,13.07
2022-09-26T12:24:27.265Z,13.46
2022-09-26T12:29:49.915Z,13.47
2022-09-26T12:35:00.167Z,13.58
2022-09-26T12:40:09.477Z,13.60
2022-09-26T12:45:11.285Z,13.58
2022-09-26T12:50:16.072Z,13.66
2022-09-26T12:55:36.292Z,13.45
2022-09-26T13:00:44.683Z,13.64
2022-09-26T13:05:52.243Z,13.86
2022-09-26T13:11:05.766Z,14.00
2022-09-26T13:16:26.476Z,13.87
2022-09-26T13:21:33.752Z,14.25
2022-09-26T13:26:46.883Z,14.24
2022-09-26T13:31:48.262Z,13.95
2022-09-26T13:36:50.182Z,13.73
2022-09-26T13:42:01.283Z,13.71
2022-09-26T13:47:21.421Z,13.36
2022-09-26T13:52:41.428Z,13.18
2022-09-26T13:57:43.443Z,13.23
2022-09-26T14:03:04.848Z,13.00
2022-09-26T14:08:45.079Z,12.81
2022-09-26T14:13:47.645Z,12.46
2022-09-26T14:18:57.922Z,12.21
2022-09-26T14:24:18.156Z,12.04
2022-09-26T14:29:29.295Z,11.86
2022-09-26T14:34:50.867Z,11.65
2022-09-26T14:40:06.643Z,11.52
2022-09-26T14:45:18.752Z,11.43
2022-09-26T14:50:24.479Z,11.28
2022-09-26T14:55:26.949Z,11.10
2022-09-26T15:00:35.014Z,10.97
2022-09-26T15:05:36.635Z,10.93
2022-09-26T15:10:40.183Z,10.96
2022-09-26T15:15:47.208Z,10.84
2022-09-26T15:20:51.757Z,10.82
2022-09-26T15:25:55.069Z,10.90
2022-09-26T15:31:20.355Z,10.87
2022-09-26T15:36:21.927Z,10.78
2022-09-26T15:41:42.014Z,10.69
2022-09-26T15:46:43.333Z,10.72
2022-09-26T15:51:45.180Z,10.78
2022-09-26T15:56:48.396Z,10.79
2022-09-26T16:01:49.752Z,10.73
2022-09-26T16:06:53.459Z,10.75
2022-09-26T16:11:56.513Z,10.74
2022-09-26T16:17:11.723Z,10.68
2022-09-26T16:22:20.608Z,10.61
2022-09-26T16:27:33.090Z,10.67
2022-09-26T16:32:35.233Z,10.67
2022-09-26T16:37:36.695Z,10.70
2022-09-26T16:42:37.996Z,10.70
2022-09-26T16:47:47.720Z,10.71
2022-09-26T16:52:49.068Z,10.74
2022-09-26T16:57:55.590Z,10.71
2022-09-26T17:02:57.450Z,10.57
2022-09-26T17:07:58.780Z,10.48
2022-09-26T17:13:02.609Z,10.49
2022-09-26T17:18:06.709Z,10.33
2022-09-26T17:23:34.935Z,10.24
2022-09-26T17:28:38.579Z,10.16
2022-09-26T17:33:41.690Z,10.20
2022-09-26T17:38:43.355Z,10.14
2022-09-26T17:43:45.079Z,9.93
2022-09-26T17:48:46.389Z,9.91
2022-09-26T17:53:51.113Z,9.94
2022-09-26T17:58:54.107Z,9.96
2022-09-26T18:03:57.301Z,9.86
2022-09-26T18:09:01.833Z,9.83
2022-09-26T18:14:04.674Z,9.92
2022-09-26T18:19:14.121Z,9.81
2022-09-26T18:24:19.815Z,9.74
2022-09-26T18:29:35.396Z,9.66
2022-09-26T18:34:36.713Z,9.67
2022-09-26T18:39:37.984Z,9.70
2022-09-26T18:44:40.233Z,9.75
2022-09-26T18:49:43.714Z,9.68
2022-09-26T18:54:45.768Z,9.75
2022-09-26T18:59:47.068Z,9.75
2022-09-26T19:04:49.105Z,9.69
2022-09-26T19:09:50.458Z,9.78
2022-09-26T19:14:51.921Z,9.71
2022-09-26T19:19:53.226Z,9.75
2022-09-26T19:24:57.028Z,9.75
2022-09-26T19:30:01.587Z,9.69
2022-09-26T19:35:04.884Z,9.80
2022-09-26T19:40:12.411Z,9.78
2022-09-26T19:45:14.923Z,9.78
2022-09-26T19:50:18.030Z,9.76
2022-09-26T19:55:21.600Z,9.81
2022-09-26T20:00:23.796Z,9.82
2022-09-26T20:05:26.297Z,9.84
2022-09-26T20:10:29.119Z,9.84
2022-09-26T20:15:31.511Z,9.77
2022-09-26T20:20:34.834Z,9.78
2022-09-26T20:25:36.616Z,9.72
2022-09-26T20:30:55.261Z,9.79
2022-09-26T20:36:03.262Z,9.80
2022-09-26T20:41:13.478Z,9.84
2022-09-26T20:46:15.195Z,9.76
2022-09-26T20:51:20.911Z,9.75
2022-09-26T20:56:22.228Z,9.79
2022-09-26T21:01:26.737Z,9.75
2022-09-26T21:06:33.162Z,9.72
2022-09-26T21:11:34.473Z,9.66
2022-09-26T21:16:38.913Z,9.66
2022-09-26T21:21:40.940Z,9.65
2022-09-26T21:26:42.317Z,9.59
2022-09-26T21:31:46.687Z,9.62
2022-09-26T21:36:48.888Z,9.60
2022-09-26T21:41:52.504Z,9.61
2022-09-26T21:46:53.866Z,9.61
2022-09-26T21:51:57.380Z,9.59
2022-09-26T21:57:03.028Z,9.58
2022-09-26T22:02:04.444Z,9.60
2022-09-26T22:07:05.786Z,9.58
2022-09-26T22:12:07.150Z,9.57
2022-09-26T22:17:08.685Z,9.52
2022-09-26T22:22:10.652Z,9.45
2022-09-26T22:27:12.080Z,9.46
2022-09-26T22:32:13.378Z,9.43
2022-09-26T22:37:15.035Z,9.40
2022-09-26T22:42:16.332Z,9.38
2022-09-26T22:47:17.690Z,9.34
2022-09-26T22:52:19.059Z,9.31
2022-09-26T22:57:20.395Z,9.32
2022-09-26T23:02:21.823Z,9.32
2022-09-26T23:07:23.191Z,9.36
2022-09-26T23:12:24.493Z,9.34
2022-09-26T23:17:25.783Z,9.39
2022-09-26T23:22:27.075Z,9.40
2022-09-26T23:27:28.521Z,9.36
2022-09-26T23:32:29.830Z,9.37
2022-09-26T23:37:32.529Z,9.36
2022-09-26T23:42:33.933Z,9.38
2022-09-26T23:47:35.240Z,9.41
2022-09-26T23:52:36.535Z,9.37
2022-09-26T23:57:37.849Z,9.43
